createdAt,value
2022-09-27T00:01:16.356Z,1.90
2022-09-27T00:03:43.861Z,2.20
2022-09-27T00:06:18.937Z,1.87
2022-09-27T00:08:45.795Z,2.10
2022-09-27T00:11:30.822Z,2.07
2022-09-27T00:13:59.312Z,1.97
2022-09-27T00:16:28.631Z,2.03
2022-09-27T00:19:03.439Z,1.40
2022-09-27T00:21:30.833Z,1.80
2022-09-27T00:23:59.125Z,1.40
2022-09-27T00:26:26.883Z,2.00
2022-09-27T00:28:54.064Z,1.87
2022-09-27T00:31:29.388Z,1.80
2022-09-27T00:34:01.623Z,1.77
2022-09-27T00:36:29.686Z,1.93
2022-09-27T00:38:56.682Z,1.83
2022-09-27T00:41:42.704Z,1.80
2022-09-27T00:44:33.531Z,1.80
2022-09-27T00:47:03.409Z,1.70
2022-09-27T00:49:35.630Z,1.57
2022-09-27T00:52:10.543Z,1.77
2022-09-27T00:54:40.860Z,1.77
2022-09-27T00:57:08.522Z,1.63
2022-09-27T00:59:45.492Z,2.03
2022-09-27T01:02:12.692Z,1.97
2022-09-27T01:04:41.015Z,1.80
2022-09-27T01:07:07.875Z,2.30
2022-09-27T01:09:35.449Z,2.37
2022-09-27T01:12:27.737Z,2.57
2022-09-27T01:15:29.459Z,1.60
2022-09-27T01:18:05.154Z,1.70
2022-09-27T01:21:03.854Z,1.70
2022-09-27T01:23:55.767Z,2.27
2022-09-27T01:26:34.111Z,1.60
2022-09-27T01:29:06.896Z,1.70
2022-09-27T01:31:47.795Z,1.90
2022-09-27T01:34:31.884Z,1.80
2022-09-27T01:37:10.649Z,2.00
2022-09-27T01:39:46.252Z,2.43
2022-09-27T01:42:28.624Z,1.80
2022-09-27T01:45:00.897Z,2.00
2022-09-27T01:47:39.483Z,1.80
2022-09-27T01:50:09.105Z,1.93
2022-09-27T01:52:42.776Z,2.00
2022-09-27T01:55:13.321Z,2.03
2022-09-27T01:57:43.763Z,2.20
2022-09-27T02:00:12.888Z,1.50
2022-09-27T02:02:48.145Z,1.60
2022-09-27T02:05:17.961Z,1.70
2022-09-27T02:07:48.695Z,1.90
2022-09-27T02:10:24.619Z,1.60
2022-09-27T02:13:22.793Z,1.83
2022-09-27T02:15:58.003Z,1.73
2022-09-27T02:18:36.375Z,1.63
2022-09-27T02:21:07.773Z,1.60
2022-09-27T02:23:46.583Z,2.00
2022-09-27T02:26:31.238Z,1.57
2022-09-27T02:29:21.962Z,1.73
2022-09-27T02:31:49.590Z,1.67
2022-09-27T02:34:29.099Z,1.77
2022-09-27T02:36:56.303Z,2.13
2022-09-27T02:39:24.035Z,3.00
2022-09-27T02:41:52.098Z,2.50
2022-09-27T02:44:21.225Z,1.67
2022-09-27T02:47:14.450Z,2.20
2022-09-27T02:49:50.185Z,1.90
2022-09-27T02:52:38.627Z,1.50
2022-09-27T02:55:19.595Z,2.03
2022-09-27T02:58:04.879Z,1.77
2022-09-27T03:00:49.305Z,1.63
2022-09-27T03:03:50.840Z,2.17
2022-09-27T03:06:20.719Z,1.70
2022-09-27T03:08:48.170Z,1.83
2022-09-27T03:11:15.062Z,1.70
2022-09-27T03:14:01.846Z,2.00
2022-09-27T03:16:30.765Z,1.80
2022-09-27T03:18:57.661Z,2.00
2022-09-27T03:21:24.507Z,2.23
2022-09-27T03:23:51.386Z,2.20
2022-09-27T03:26:18.242Z,1.70
2022-09-27T03:28:45.079Z,1.80
2022-09-27T03:31:12.013Z,1.83
2022-09-27T03:33:38.940Z,1.70
2022-09-27T03:36:06.373Z,2.00
2022-09-27T03:38:33.375Z,1.90
2022-09-27T03:41:00.308Z,1.70
2022-09-27T03:43:27.239Z,2.03
2022-09-27T03:45:54.306Z,2.17
2022-09-27T03:48:24.570Z,2.73
2022-09-27T03:50:54.702Z,2.23
2022-09-27T03:53:21.559Z,2.20
2022-09-27T03:55:48.607Z,2.10
2022-09-27T03:58:15.787Z,1.97
2022-09-27T04:00:44.095Z,2.00
2022-09-27T04:03:12.181Z,2.33
2022-09-27T04:05:39.115Z,1.90
2022-09-27T04:08:11.184Z,1.83
2022-09-27T04:10:38.143Z,1.67
2022-09-27T04:13:05.614Z,1.87
2022-09-27T04:15:32.634Z,1.93
2022-09-27T04:17:59.527Z,1.60
2022-09-27T04:20:26.592Z,1.87
2022-09-27T04:22:53.443Z,2.30
2022-09-27T04:25:20.307Z,1.50
2022-09-27T04:27:48.403Z,1.80
2022-09-27T04:30:16.138Z,1.60
2022-09-27T04:32:44.355Z,2.20
2022-09-27T04:35:31.135Z,1.97
2022-09-27T04:37:58.382Z,1.83
2022-09-27T04:40:25.363Z,2.07
2022-09-27T04:42:52.537Z,2.00
2022-09-27T04:45:20.433Z,2.13
2022-09-27T04:47:50.705Z,2.30
2022-09-27T04:50:18.434Z,2.33
2022-09-27T04:52:45.315Z,2.50
2022-09-27T04:55:12.182Z,2.23
2022-09-27T04:57:39.018Z,2.33
2022-09-27T05:00:06.408Z,1.97
2022-09-27T05:02:33.293Z,2.37
2022-09-27T05:05:00.633Z,2.00
2022-09-27T05:07:28.326Z,2.10
2022-09-27T05:09:56.743Z,2.00
2022-09-27T05:12:25.807Z,1.97
2022-09-27T05:14:54.116Z,2.10
2022-09-27T05:17:22.347Z,1.83
2022-09-27T05:19:50.040Z,2.20
2022-09-27T05:22:17.402Z,2.37
2022-09-27T05:24:44.252Z,2.50
2022-09-27T05:27:16.209Z,2.40
2022-09-27T05:29:43.082Z,2.80
2022-09-27T05:32:10.083Z,2.90
2022-09-27T05:34:37.110Z,2.77
2022-09-27T05:37:04.163Z,3.40
2022-09-27T05:39:31.041Z,3.60
2022-09-27T05:41:58.017Z,3.87
2022-09-27T05:44:26.075Z,3.80
2022-09-27T05:46:53.004Z,4.10
2022-09-27T05:49:20.468Z,3.90
2022-09-27T05:51:47.731Z,3.77
2022-09-27T05:54:14.756Z,2.97
2022-09-27T05:56:41.744Z,2.93
2022-09-27T05:59:08.718Z,2.87
2022-09-27T06:01:35.663Z,2.80
2022-09-27T06:04:05.457Z,2.20
2022-09-27T06:06:35.716Z,2.37
2022-09-27T06:09:02.646Z,1.87
2022-09-27T06:11:29.570Z,2.30
2022-09-27T06:13:56.421Z,2.80
2022-09-27T06:16:23.354Z,2.80
2022-09-27T06:18:50.326Z,3.40
2022-09-27T06:21:17.251Z,3.50
2022-09-27T06:23:44.083Z,3.47
2022-09-27T06:26:11.708Z,4.23
2022-09-27T06:28:38.699Z,4.37
2022-09-27T06:31:08.701Z,3.70
2022-09-27T06:33:35.877Z,3.53
2022-09-27T06:36:04.841Z,3.83
2022-09-27T06:38:32.835Z,4.70
2022-09-27T06:41:04.672Z,3.43
2022-09-27T06:43:31.875Z,3.17
2022-09-27T06:46:06.117Z,3.20
2022-09-27T06:48:34.073Z,3.17
2022-09-27T06:51:00.979Z,3.80
2022-09-27T06:53:29.951Z,3.60
2022-09-27T06:56:01.288Z,3.97
2022-09-27T06:58:48.038Z,3.83
2022-09-27T07:01:15.215Z,6.20
2022-09-27T07:03:43.292Z,4.97
2022-09-27T07:06:22.951Z,4.90
2022-09-27T07:08:52.157Z,5.50
2022-09-27T07:11:19.635Z,4.37
2022-09-27T07:13:46.517Z,3.87
2022-09-27T07:16:14.120Z,3.23
2022-09-27T07:18:42.393Z,3.23
2022-09-27T07:21:09.426Z,3.07
2022-09-27T07:23:37.313Z,3.20
2022-09-27T07:26:05.513Z,3.20
2022-09-27T07:28:32.884Z,3.20
2022-09-27T07:30:59.928Z,2.57
2022-09-27T07:33:27.443Z,3.00
2022-09-27T07:35:54.331Z,2.67
2022-09-27T07:38:21.268Z,3.33
2022-09-27T07:40:48.185Z,3.30
2022-09-27T07:43:15.510Z,3.57
2022-09-27T07:45:42.422Z,3.27
2022-09-27T07:48:13.293Z,3.80
2022-09-27T07:50:40.326Z,3.17
2022-09-27T07:53:08.010Z,3.90
2022-09-27T07:55:34.875Z,3.70
2022-09-27T07:58:07.289Z,3.10
2022-09-27T08:00:34.512Z,3.23
2022-09-27T08:03:07.062Z,2.90
2022-09-27T08:05:36.258Z,3.47
2022-09-27T08:08:04.038Z,3.50
2022-09-27T08:10:32.547Z,3.23
2022-09-27T08:13:03.662Z,5.00
2022-09-27T08:15:36.959Z,4.70
2022-09-27T08:18:03.977Z,4.60
2022-09-27T08:20:30.827Z,4.90
2022-09-27T08:22:57.703Z,4.40
2022-09-27T08:25:24.609Z,5.00
2022-09-27T08:27:58.773Z,4.77
2022-09-27T08:30:27.771Z,4.50
2022-09-27T08:32:58.961Z,4.50
2022-09-27T08:35:28.211Z,4.10
2022-09-27T08:37:59.968Z,5.13
2022-09-27T08:40:55.964Z,4.00
2022-09-27T08:43:31.843Z,4.33
2022-09-27T08:46:02.033Z,4.03
2022-09-27T08:48:30.539Z,4.73
2022-09-27T08:50:58.572Z,3.90
2022-09-27T08:53:42.829Z,4.03
2022-09-27T08:56:11.988Z,3.90
2022-09-27T08:58:50.147Z,3.80
2022-09-27T09:01:18.473Z,3.97
2022-09-27T09:03:55.780Z,4.47
2022-09-27T09:06:30.184Z,4.80
2022-09-27T09:09:06.104Z,5.07
2022-09-27T09:12:28.502Z,4.73
2022-09-27T09:14:55.373Z,4.27
2022-09-27T09:17:37.134Z,6.27
2022-09-27T09:20:22.109Z,4.40
2022-09-27T09:23:13.538Z,4.47
2022-09-27T09:25:50.847Z,4.30
2022-09-27T09:28:29.904Z,4.70
2022-09-27T09:31:05.675Z,4.30
2022-09-27T09:33:46.363Z,6.63
2022-09-27T09:36:35.172Z,5.70
2022-09-27T09:39:11.123Z,5.20
2022-09-27T09:41:48.634Z,5.07
2022-09-27T09:44:48.155Z,4.90
2022-09-27T09:47:33.296Z,4.97
2022-09-27T09:50:07.022Z,2.33
2022-09-27T09:53:13.013Z,2.10
2022-09-27T09:55:42.473Z,2.77
2022-09-27T09:58:20.909Z,3.50
2022-09-27T10:00:50.799Z,4.83
2022-09-27T10:03:17.831Z,5.20
2022-09-27T10:05:45.724Z,4.37
2022-09-27T10:08:24.278Z,4.70
2022-09-27T10:10:51.202Z,4.33
2022-09-27T10:13:20.798Z,3.37
2022-09-27T10:16:03.621Z,3.00
2022-09-27T10:18:31.571Z,3.80
2022-09-27T10:21:02.206Z,2.90
2022-09-27T10:23:30.101Z,3.10
2022-09-27T10:26:04.055Z,4.00
2022-09-27T10:28:37.438Z,3.03
2022-09-27T10:31:21.362Z,2.20
2022-09-27T10:33:56.244Z,2.07
2022-09-27T10:36:29.340Z,2.10
2022-09-27T10:39:01.540Z,1.37
2022-09-27T10:41:36.736Z,1.87
2022-09-27T10:44:25.622Z,1.43
2022-09-27T10:46:58.715Z,1.37
2022-09-27T10:49:37.080Z,2.00
2022-09-27T10:52:08.115Z,1.40
2022-09-27T10:54:40.762Z,1.20
2022-09-27T10:57:23.102Z,1.60
2022-09-27T11:00:01.667Z,1.30
2022-09-27T11:02:35.139Z,1.10
2022-09-27T11:05:16.083Z,0.97
2022-09-27T11:07:52.858Z,1.50
2022-09-27T11:10:37.436Z,0.90
2022-09-27T11:13:12.565Z,1.00
2022-09-27T11:15:51.154Z,1.13
2022-09-27T11:18:31.586Z,1.20
2022-09-27T11:21:18.350Z,1.20
2022-09-27T11:24:04.826Z,1.40
2022-09-27T11:26:59.218Z,1.63
2022-09-27T11:29:35.711Z,0.83
2022-09-27T11:32:02.946Z,1.10
2022-09-27T11:34:44.932Z,1.03
2022-09-27T11:37:11.775Z,0.70
2022-09-27T11:39:53.484Z,0.80
2022-09-27T11:42:57.221Z,0.90
2022-09-27T11:45:50.327Z,0.80
2022-09-27T11:48:51.851Z,0.97
2022-09-27T11:51:27.818Z,1.07
2022-09-27T11:54:16.201Z,1.20
2022-09-27T11:56:49.029Z,1.27
2022-09-27T11:59:25.189Z,1.13
2022-09-27T12:02:18.627Z,1.50
2022-09-27T12:04:57.387Z,0.90
2022-09-27T12:08:01.624Z,1.00
2022-09-27T12:10:28.974Z,1.10
2022-09-27T12:12:58.017Z,1.00
2022-09-27T12:15:30.469Z,0.90
2022-09-27T12:18:10.080Z,1.20
2022-09-27T12:20:39.822Z,0.90
2022-09-27T12:23:15.242Z,1.00
2022-09-27T12:25:43.994Z,1.13
2022-09-27T12:28:28.408Z,1.00
2022-09-27T12:31:27.652Z,0.90
2022-09-27T12:37:11.724Z,1.30
2022-09-27T12:39:43.519Z,1.30
2022-09-27T12:42:25.950Z,1.17
2022-09-27T12:44:53.515Z,1.00
2022-09-27T12:47:48.190Z,1.50
2022-09-27T12:50:37.696Z,1.20
2022-09-27T12:53:23.421Z,1.30
2022-09-27T12:56:01.813Z,1.33
2022-09-27T12:58:47.084Z,1.20
2022-09-27T13:01:23.263Z,1.20
2022-09-27T13:04:10.613Z,1.87
2022-09-27T13:06:47.408Z,2.33
2022-09-27T13:09:26.585Z,1.20
2022-09-27T13:12:10.339Z,2.20
2022-09-27T13:14:59.745Z,2.10
2022-09-27T13:17:49.986Z,2.10
2022-09-27T13:20:37.509Z,1.80
2022-09-27T13:23:18.375Z,2.40
2022-09-27T13:26:14.479Z,1.70
2022-09-27T13:28:50.407Z,1.60
2022-09-27T13:31:37.432Z,1.37
2022-09-27T13:34:04.682Z,1.30
2022-09-27T13:36:32.906Z,2.13
2022-09-27T13:39:01.378Z,1.73
2022-09-27T13:41:46.445Z,1.37
2022-09-27T13:44:22.942Z,2.00
2022-09-27T13:47:00.253Z,2.10
2022-09-27T13:49:47.916Z,1.47
2022-09-27T13:52:36.448Z,1.10
2022-09-27T13:55:07.499Z,1.60
2022-09-27T13:58:15.741Z,1.00
2022-09-27T14:00:48.237Z,1.37
2022-09-27T14:03:46.879Z,1.27
2022-09-27T14:06:35.281Z,1.20
2022-09-27T14:09:06.618Z,1.10
2022-09-27T14:11:44.208Z,1.10
2022-09-27T14:14:24.246Z,1.50
2022-09-27T14:16:51.388Z,1.13
2022-09-27T14:19:25.584Z,1.33
2022-09-27T14:22:11.067Z,1.83
2022-09-27T14:24:37.815Z,1.77
2022-09-27T14:27:19.995Z,1.73
2022-09-27T14:29:51.482Z,1.57
2022-09-27T14:32:24.887Z,1.90
2022-09-27T14:35:03.727Z,1.80
2022-09-27T14:37:30.947Z,1.73
2022-09-27T14:40:18.957Z,2.00
2022-09-27T14:42:45.970Z,1.53
2022-09-27T14:45:21.781Z,2.30
2022-09-27T14:47:51.083Z,2.23
2022-09-27T14:50:24.922Z,2.50
2022-09-27T14:52:56.271Z,2.90
2022-09-27T14:55:25.680Z,2.70
2022-09-27T14:58:00.871Z,2.40
2022-09-27T15:00:32.218Z,2.20
2022-09-27T15:03:03.175Z,2.20
2022-09-27T15:05:33.226Z,2.23
2022-09-27T15:08:04.551Z,2.47
2022-09-27T15:10:35.158Z,2.07
2022-09-27T15:13:04.724Z,2.90
2022-09-27T15:15:35.178Z,2.90
2022-09-27T15:18:03.612Z,3.87
2022-09-27T15:20:35.233Z,3.57
2022-09-27T15:23:04.587Z,3.10
2022-09-27T15:26:01.151Z,2.70
2022-09-27T15:28:28.137Z,3.50
2022-09-27T15:30:57.769Z,3.00
2022-09-27T15:33:28.816Z,3.30
2022-09-27T15:35:58.692Z,2.90
2022-09-27T15:38:32.814Z,2.90
2022-09-27T15:41:07.168Z,2.90
2022-09-27T15:43:36.371Z,3.10
2022-09-27T15:46:24.695Z,2.97
2022-09-27T15:49:19.388Z,3.37
2022-09-27T15:51:48.562Z,3.50
2022-09-27T15:54:18.668Z,3.10
2022-09-27T15:56:45.996Z,3.37
2022-09-27T15:59:29.505Z,3.53
2022-09-27T16:01:58.798Z,3.40
2022-09-27T16:04:31.714Z,2.33
2022-09-27T16:07:01.125Z,2.70
2022-09-27T16:09:28.488Z,3.30
2022-09-27T16:11:55.302Z,2.77
2022-09-27T16:14:22.113Z,3.10
2022-09-27T16:17:03.756Z,2.80
2022-09-27T16:19:30.591Z,0.90
2022-09-27T16:21:57.713Z,1.23
2022-09-27T16:24:25.572Z,0.90
2022-09-27T16:26:52.407Z,0.77
2022-09-27T16:29:19.232Z,0.90
2022-09-27T16:31:46.539Z,0.70
2022-09-27T16:34:13.863Z,0.50
2022-09-27T16:36:40.865Z,0.70
2022-09-27T16:39:12.769Z,0.60
2022-09-27T16:41:43.599Z,0.60
2022-09-27T16:44:12.755Z,0.63
2022-09-27T16:46:41.481Z,0.50
2022-09-27T16:49:28.601Z,0.60
2022-09-27T16:52:01.330Z,0.57
2022-09-27T16:54:29.336Z,0.60
2022-09-27T16:56:59.829Z,0.50
2022-09-27T16:59:27.594Z,0.60
2022-09-27T17:01:57.897Z,0.70
2022-09-27T17:04:27.480Z,0.70
2022-09-27T17:06:55.342Z,0.67
2022-09-27T17:09:22.354Z,0.70
2022-09-27T17:11:49.800Z,0.63
2022-09-27T17:14:19.534Z,0.87
2022-09-27T17:16:47.757Z,0.77
2022-09-27T17:19:16.086Z,0.87
2022-09-27T17:21:43.594Z,1.00
2022-09-27T17:24:11.104Z,1.00
2022-09-27T17:26:37.940Z,1.20
2022-09-27T17:29:04.822Z,1.37
2022-09-27T17:31:34.698Z,1.20
2022-09-27T17:34:02.638Z,0.90
2022-09-27T17:36:34.549Z,0.60
2022-09-27T17:39:02.124Z,0.70
2022-09-27T17:41:29.946Z,0.80
2022-09-27T17:43:59.213Z,1.00
2022-09-27T17:46:28.871Z,0.70
2022-09-27T17:49:15.167Z,1.67
2022-09-27T17:51:42.860Z,1.30
2022-09-27T17:54:10.565Z,1.20
2022-09-27T17:56:39.112Z,0.90
2022-09-27T17:59:07.106Z,0.70
2022-09-27T18:01:34.535Z,0.90
2022-09-27T18:04:01.803Z,0.90
2022-09-27T18:06:29.007Z,0.90
2022-09-27T18:08:56.519Z,1.03
2022-09-27T18:11:28.482Z,0.80
2022-09-27T18:13:58.718Z,0.90
2022-09-27T18:16:29.735Z,1.00
2022-09-27T18:18:58.203Z,0.87
2022-09-27T18:21:26.819Z,0.70
2022-09-27T18:23:56.849Z,1.17
2022-09-27T18:26:25.430Z,0.93
2022-09-27T18:28:54.579Z,0.70
2022-09-27T18:31:23.533Z,0.90
2022-09-27T18:33:50.876Z,0.93
2022-09-27T18:36:20.462Z,1.03
2022-09-27T18:38:52.927Z,0.90
2022-09-27T18:41:21.864Z,0.97
2022-09-27T18:43:49.619Z,1.00
2022-09-27T18:46:37.492Z,1.30
2022-09-27T18:49:06.550Z,1.20
2022-09-27T18:51:36.234Z,1.30
2022-09-27T18:54:09.481Z,1.20
2022-09-27T18:56:39.414Z,1.10
2022-09-27T18:59:10.742Z,1.43
2022-09-27T19:01:45.144Z,2.00
2022-09-27T19:04:14.891Z,3.10
2022-09-27T19:06:41.954Z,3.03
2022-09-27T19:09:11.530Z,2.73
2022-09-27T19:11:39.159Z,2.90
2022-09-27T19:14:06.329Z,2.10
2022-09-27T19:16:33.464Z,3.20
2022-09-27T19:19:00.362Z,3.40
2022-09-27T19:21:29.515Z,2.50
2022-09-27T19:23:57.224Z,1.97
2022-09-27T19:26:26.368Z,1.27
2022-09-27T19:28:53.347Z,1.03
2022-09-27T19:31:26.222Z,0.70
2022-09-27T19:33:58.941Z,0.77
2022-09-27T19:36:26.839Z,0.70
2022-09-27T19:38:53.703Z,0.60
2022-09-27T19:41:20.606Z,0.77
2022-09-27T19:43:52.056Z,0.60
2022-09-27T19:46:19.741Z,0.80
2022-09-27T19:48:47.848Z,0.60
2022-09-27T19:51:16.698Z,0.60
2022-09-27T19:53:43.647Z,0.67
2022-09-27T19:56:11.907Z,0.70
2022-09-27T19:58:40.471Z,0.70
2022-09-27T20:01:16.445Z,0.60
2022-09-27T20:03:44.532Z,0.70
2022-09-27T20:06:14.561Z,0.87
2022-09-27T20:08:42.537Z,0.70
2022-09-27T20:11:11.991Z,0.90
2022-09-27T20:13:39.891Z,0.60
2022-09-27T20:16:18.248Z,0.40
2022-09-27T20:18:50.755Z,0.60
2022-09-27T20:21:18.795Z,0.60
2022-09-27T20:23:49.515Z,0.60
2022-09-27T20:26:17.494Z,0.70
2022-09-27T20:28:46.531Z,0.50
2022-09-27T20:31:17.641Z,0.60
2022-09-27T20:33:46.764Z,0.63
2022-09-27T20:36:19.072Z,0.60
2022-09-27T20:38:47.830Z,0.60
2022-09-27T20:41:17.809Z,0.50
2022-09-27T20:43:45.742Z,0.50
2022-09-27T20:46:15.453Z,0.70
2022-09-27T20:48:43.431Z,0.60
2022-09-27T20:51:14.268Z,0.50
2022-09-27T20:53:42.532Z,0.53
2022-09-27T20:56:21.232Z,0.60
2022-09-27T20:58:53.537Z,0.50
2022-09-27T21:01:22.745Z,0.60
2022-09-27T21:03:54.814Z,0.50
2022-09-27T21:06:24.416Z,0.50
2022-09-27T21:08:51.647Z,0.50
2022-09-27T21:11:19.696Z,0.50
2022-09-27T21:13:47.779Z,0.60
2022-09-27T21:16:17.472Z,0.70
2022-09-27T21:18:45.130Z,0.50
2022-09-27T21:21:14.443Z,0.50
2022-09-27T21:23:44.846Z,0.50
2022-09-27T21:26:19.905Z,0.50
2022-09-27T21:28:49.287Z,0.73
2022-09-27T21:31:22.508Z,0.50
2022-09-27T21:33:54.093Z,0.60
2022-09-27T21:36:23.482Z,0.70
2022-09-27T21:38:50.758Z,0.70
2022-09-27T21:41:18.464Z,0.50
2022-09-27T21:43:47.820Z,0.70
2022-09-27T21:46:19.500Z,0.60
2022-09-27T21:48:48.958Z,0.60
2022-09-27T21:51:30.483Z,0.40
2022-09-27T21:54:02.371Z,0.60
2022-09-27T21:56:37.531Z,0.73
2022-09-27T21:59:05.876Z,0.53
2022-09-27T22:01:34.270Z,0.50
2022-09-27T22:04:03.627Z,0.43
2022-09-27T22:06:38.297Z,0.50
2022-09-27T22:09:07.989Z,0.50
2022-09-27T22:11:38.057Z,0.40
2022-09-27T22:14:09.447Z,0.50
2022-09-27T22:16:36.714Z,0.40
2022-09-27T22:19:04.313Z,0.43
2022-09-27T22:21:38.754Z,0.50
2022-09-27T22:24:08.551Z,0.50
2022-09-27T22:26:38.203Z,0.50
2022-09-27T22:29:06.018Z,0.40
2022-09-27T22:31:33.039Z,0.53
2022-09-27T22:34:02.438Z,0.50
2022-09-27T22:36:30.503Z,0.60
2022-09-27T22:38:57.850Z,0.60
2022-09-27T22:41:25.598Z,0.67
2022-09-27T22:43:55.090Z,0.57
2022-09-27T22:46:22.447Z,0.50
2022-09-27T22:48:49.919Z,0.50
2022-09-27T22:51:17.611Z,0.40
2022-09-27T22:53:44.511Z,0.50
2022-09-27T22:56:19.859Z,0.43
2022-09-27T22:58:48.101Z,0.50
2022-09-27T23:01:16.912Z,0.50
2022-09-27T23:03:44.320Z,0.60
2022-09-27T23:06:12.238Z,0.60
2022-09-27T23:08:39.707Z,0.70
2022-09-27T23:11:11.586Z,0.60
2022-09-27T23:13:41.422Z,0.50
2022-09-27T23:16:16.530Z,0.60
2022-09-27T23:18:44.429Z,0.40
2022-09-27T23:21:13.217Z,0.60
2022-09-27T23:23:45.067Z,0.60
2022-09-27T23:26:17.432Z,0.50
2022-09-27T23:28:44.771Z,0.70
2022-09-27T23:31:17.071Z,0.60
2022-09-27T23:33:48.649Z,0.50
2022-09-27T23:36:17.788Z,0.40
2022-09-27T23:38:48.614Z,0.60
2022-09-27T23:41:17.090Z,0.50
2022-09-27T23:43:44.579Z,0.53
2022-09-27T23:46:12.317Z,0.60
2022-09-27T23:48:39.989Z,0.50
2022-09-27T23:51:08.970Z,0.50
2022-09-27T23:53:36.694Z,0.50
2022-09-27T23:56:14.350Z,0.53
2022-09-27T23:58:43.248Z,0.50
